Address 0x4f2f56e4f78494946ab2f65cfe6ea28a21a4a57f 7

Overview

Balance:
6.471984948562367479 GLMR

GLMR Value:
$2.93 (@ $0.45/GLMR)
Txn Hash Method
Block
From
To
Value [Txn Fee]
0x4c6b380ad478ede01366abc4ce9bf5b48e9129f25837e166cb132d4bae1f32a50x4a6d046119960452022-10-03 1:45:303 hrs 50 mins ago0x4f2f56e4f78494946ab2f65cfe6ea28a21a4a57fOUT 0xb7435868da556c611aa193c6d25838da73a9d7800 GLMR0.00328048
0x474133a9f5fb1d1ff1049e9770a99601e3ac91aad448a784e3c231f6423cdcdb0x4a6d046119947722022-10-02 21:28:008 hrs 8 mins ago0x4f2f56e4f78494946ab2f65cfe6ea28a21a4a57fOUT 0xb7435868da556c611aa193c6d25838da73a9d7800 GLMR0.0028947
0x2aef4fdc1cc91c06d520a777552ff362c421af37fee42f4c9d0484e4181d02070x4a6d046119940662022-10-02 19:03:2410 hrs 32 mins ago0x4f2f56e4f78494946ab2f65cfe6ea28a21a4a57fOUT 0xb7435868da556c611aa193c6d25838da73a9d7800 GLMR0.0096709305
0x68f7fc6ed2ae16d3fd87e9858cad76a4da91e9898ddd8fb50f9cde38878f6c990x5605f28419933952022-10-02 16:45:1212 hrs 51 mins ago0x4f2f56e4f78494946ab2f65cfe6ea28a21a4a57fOUT 0x8ee744603b1f81431744f4b0e9b992c3cef095900 GLMR0.004496856
0xbb42eabf79f8c1b386223289a8857af6ea57f51223fb91a98ec0f4c75b0fecfd0x5605f28419926802022-10-02 14:18:2415 hrs 17 mins ago0x4f2f56e4f78494946ab2f65cfe6ea28a21a4a57fOUT 0xb7435868da556c611aa193c6d25838da73a9d7800 GLMR0.0052239005
0x12c85c1b146ca2c1a13be179e00f3a9ad7bd905da96ecf7184ddb962b8ba70190x4a6d046119909912022-10-02 8:34:0621 hrs 2 mins ago0x4f2f56e4f78494946ab2f65cfe6ea28a21a4a57fOUT 0xb7435868da556c611aa193c6d25838da73a9d7800 GLMR0.0039977805
0x32d8fe2ec306f7823a882ae849a1857b6934b8197c455f5622c6814e8c2fe2800x4a6d046119902102022-10-02 5:54:5423 hrs 41 mins ago0x4f2f56e4f78494946ab2f65cfe6ea28a21a4a57fOUT 0xb7435868da556c611aa193c6d25838da73a9d7800 GLMR0.003349906
0xeec731b7c12d29b9361dffccc54115afb5aadd878c2541d79aea11f97c5b77710x5605f28419892422022-10-02 2:36:541 day 2 hrs ago0x4f2f56e4f78494946ab2f65cfe6ea28a21a4a57fOUT 0xb7435868da556c611aa193c6d25838da73a9d7800 GLMR0.004492593
0xf071450b0230f09596084ed9a5d79529a11f4ce0ce001743c353b9d22672c4680x4a6d046119873732022-10-01 20:14:301 day 9 hrs ago0x4f2f56e4f78494946ab2f65cfe6ea28a21a4a57fOUT 0xb7435868da556c611aa193c6d25838da73a9d7800 GLMR0.010262868
0x25bdd15cc91a969124e3eb790bdacfabd169d79775f00021390fced2c7ce00790x4a6d046119872322022-10-01 19:45:541 day 9 hrs ago0x4f2f56e4f78494946ab2f65cfe6ea28a21a4a57fOUT 0xb7435868da556c611aa193c6d25838da73a9d7800 GLMR0.003962357
0x116d907293a87102c3fded5acf741dcc966105b4e96250d71aead4c8afc746310x5605f28419866612022-10-01 17:49:181 day 11 hrs ago0x4f2f56e4f78494946ab2f65cfe6ea28a21a4a57fOUT 0xb7435868da556c611aa193c6d25838da73a9d7800 GLMR0.0030603265
0x66672f119387efe4e88a6048934521471b96ed500ce727af77afa2e64bb672350x5605f28419863572022-10-01 16:46:121 day 12 hrs ago0x4f2f56e4f78494946ab2f65cfe6ea28a21a4a57fOUT 0xb7435868da556c611aa193c6d25838da73a9d7800 GLMR0.0045205055
0x78d99e8d281d357b476e1ba5b887a85f8f6ab464256858b5e49254a7ff8476d20x4a6d046119862232022-10-01 16:18:241 day 13 hrs ago0x4f2f56e4f78494946ab2f65cfe6ea28a21a4a57fOUT 0xb7435868da556c611aa193c6d25838da73a9d7800 GLMR0.009370332
0xb3b5058cb0f6d90e751bb0328bac9c030bb29f6ff5dbc8123d96a96fb0bcd78d0x4a6d046119854812022-10-01 13:46:421 day 15 hrs ago0x4f2f56e4f78494946ab2f65cfe6ea28a21a4a57fOUT 0xb7435868da556c611aa193c6d25838da73a9d7800 GLMR0.003969665
0x68a4be02c827ce692f3d1f02e6e779d8a9d9318f91a660550cda4159b71c54e50x4a6d046119848632022-10-01 11:40:481 day 17 hrs ago0x4f2f56e4f78494946ab2f65cfe6ea28a21a4a57fOUT 0xb7435868da556c611aa193c6d25838da73a9d7800 GLMR0.0098246925
0xfffbd6536bb55347cb183c3a63178cc2f949c63409c9483b792fbd68ae6cccfd0x5605f28419839332022-10-01 8:31:121 day 21 hrs ago0x4f2f56e4f78494946ab2f65cfe6ea28a21a4a57fOUT 0xb7435868da556c611aa193c6d25838da73a9d7800 GLMR0.0040004
0xa9156497ea5b206767261f5f54ea8e8343bb2c79fbd6029cd5c55f0396fd03cd0x4a6d046119826802022-10-01 4:15:482 days 1 hr ago0x4f2f56e4f78494946ab2f65cfe6ea28a21a4a57fOUT 0xb7435868da556c611aa193c6d25838da73a9d7800 GLMR0.02556
0x54a8b3e0866a1cd73e9fadef9e5136258d3c568afd7a4c8b5afa7346324f302c0x4a6d046119814292022-10-01 0:00:002 days 5 hrs ago0x4f2f56e4f78494946ab2f65cfe6ea28a21a4a57fOUT 0xb7435868da556c611aa193c6d25838da73a9d7800 GLMR0.0098539
0xfc75267944b8422dc5a7b4c977fbe7256e59bc80153064173342aaa8ed4368d40x5605f28419810152022-09-30 22:35:482 days 7 hrs ago0x4f2f56e4f78494946ab2f65cfe6ea28a21a4a57fOUT 0xb7435868da556c611aa193c6d25838da73a9d7800 GLMR0.0034397
0x1426d9f44a1703fc1d342b60cf88f64feab6bf6b379640d1c4e3fe8b45a83cb20x4a6d046119804532022-09-30 20:41:482 days 8 hrs ago0x4f2f56e4f78494946ab2f65cfe6ea28a21a4a57fOUT 0xb7435868da556c611aa193c6d25838da73a9d7800 GLMR0.0086815995
0xe14ded423bd4bf29af1fbb30be3a4a5a5e486f2800aec15fb5d67ad1cddf87d30x4a6d046119800082022-09-30 19:11:122 days 10 hrs ago0x4f2f56e4f78494946ab2f65cfe6ea28a21a4a57fOUT 0xb7435868da556c611aa193c6d25838da73a9d7800 GLMR0.003969665
0x9acf552c2ef803938366d63be4d03d43e10e20656368387f9f7a3d186e92de090x4a6d046119796682022-09-30 18:02:062 days 11 hrs ago0x4f2f56e4f78494946ab2f65cfe6ea28a21a4a57fOUT 0xb7435868da556c611aa193c6d25838da73a9d7800 GLMR0.0029381205
0xb8802a923fe8d2ec8e242e018f79189684e2c10dbe8adf6f52aeba8272f819f80x5605f28419795432022-09-30 17:37:062 days 11 hrs ago0x4f2f56e4f78494946ab2f65cfe6ea28a21a4a57fOUT 0xb7435868da556c611aa193c6d25838da73a9d7800 GLMR0.01054025
0x9200e5c2ef5af5d2a278a2f880bbd2485b3b1b0ad46245a523427093f91b9ff70x5605f28419793632022-09-30 17:00:062 days 12 hrs ago0x4f2f56e4f78494946ab2f65cfe6ea28a21a4a57fOUT 0xb7435868da556c611aa193c6d25838da73a9d7800 GLMR0.004498506
0x276969afc2eedde6ff4ad77ad453665af9dcd75945f2bddc38ffb88c57a348380x5605f28419789572022-09-30 15:36:002 days 14 hrs ago0x4f2f56e4f78494946ab2f65cfe6ea28a21a4a57fOUT 0xb7435868da556c611aa193c6d25838da73a9d7800 GLMR0.003490382
[ Download CSV Export 
Latest 5 internal transactions
Parent Txn Hash Block From To Value
0x7551d10c6aa05d0f7630f5414be2bb3ea9dd63894fbfe04d6ae64e2656a2d0814680122022-02-23 9:01:06221 days 20 hrs ago 0xc7b65c2dfe580c8db2b967ae4e489c084f7ae2480x4f2f56e4f78494946ab2f65cfe6ea28a21a4a57f10 GLMR
0x366f7a83057c131a9f82fc6f561fd490bd497f6589689edcd14e4821b01aa8f24679902022-02-23 8:56:36221 days 20 hrs ago 0xc7b65c2dfe580c8db2b967ae4e489c084f7ae2480x4f2f56e4f78494946ab2f65cfe6ea28a21a4a57f10 GLMR
0xce8720ee8b87871b6971430a5cd4b911c084269f97d71d677dec16d24c8799da4510832022-02-20 22:10:12224 days 7 hrs ago 0xc7b65c2dfe580c8db2b967ae4e489c084f7ae2480x4f2f56e4f78494946ab2f65cfe6ea28a21a4a57f5 GLMR
0xb688b6d8ae2c7deef64748926de6be23f92ab69bd0b0ca992ddf2c89ac7be7793335192022-02-03 16:05:30241 days 13 hrs ago 0xc7b65c2dfe580c8db2b967ae4e489c084f7ae2480x4f2f56e4f78494946ab2f65cfe6ea28a21a4a57f5 GLMR
0x685bcc9e748250d46d0e645ac7b477bb0714e1e2501721089eee9fe68a9660a83052502022-01-30 15:07:00245 days 14 hrs ago 0xc7b65c2dfe580c8db2b967ae4e489c084f7ae2480x4f2f56e4f78494946ab2f65cfe6ea28a21a4a57f1 GLMR
[ Download CSV Export 
Loading

Contract Name:
0

Compiler Version
0

Optimization Enabled:
0

Other Settings:
-NA-
Block Transaction Gas Used Reward
Age Block Fee Address BC Fee Address Voting Power Jailed Incoming
Block Uncle Number Difficulty Gas Used Reward
Loading
Make sure to use the "Vote Down" button for any spammy posts, and the "Vote Up" for interesting conversations.